AirNav   Bose ProFlight Series 2 Headset
 
 1077 users online  

NH63 Weston Street Heliport
Derry, New Hampshire, USA

GOING TO DERRY?


FAA INFORMATION EFFECTIVE 02 JANUARY 2020

Location

FAA Identifier: NH63
Lat/Long: 42-52-00.3150N 071-13-04.7190W
42-52.005250N 071-13.078650W
42.8667542,-71.2179775
(estimated)
Elevation: 224 ft. / 68 m (estimated)
Variation: 16W (1985)
From city: 5 miles S of DERRY, NH
Time zone: UTC -5 (UTC -4 during Daylight Saving Time)
Zip code: 03038

Heliport Operations

Heliport use: Private use. Permission required prior to landing
Activation date: 08/1991
Control tower: no
ARTCC: BOSTON CENTER
FSS: BANGOR FLIGHT SERVICE STATION
Attendance: UNATNDD
Segmented circle: no
Lights: SS-SR

Heliport Communications

WX ASOS at LWM (10 nm SE): PHONE 978-687-8017
WX ASOS at MHT (10 nm W): 119.55 (603-621-1766)
WX AWOS-3PT at ASH (14 nm W): 125.1 (603-578-0473)

Nearby radio navigation aids

VOR radial/distance  VOR name  Freq  Var
MHTr106/6.7MANCHESTER VOR/DME114.4015W
LWMr339/9.3LAWRENCE VOR/DME112.5015W
PSMr248/21.4PEASE VOR/DME116.5016W
CONr158/26.4CONCORD VOR/DME112.9015W
BOSr358/32.2BOSTON VOR/DME112.7016W

 
NDB name  Hdg/Dist  Freq  Var  ID
FITZY104/13.720915WMJ -- .---
ROLLINS235/27.226016WESG . ... --.

Heliport Services

Runway Information

Helipad H1

Dimensions: 10 x 10 ft. / 3 x 3 m
Surface: concrete
Runway edge lights: FLD
Latitude: 42-52.005250N
Longitude: 071-13.078650W
Elevation: 224.0 ft.
Traffic pattern: leftleft

Heliport Ownership and Management from official FAA records

Ownership: Privately-owned
Owner: RICHARD WICKSON
18 WESTON ST
DERRY, NH 03038
Phone 603-898-9178
Manager: RICHARD WICKSON
SUITE 211, 15 ERMER RD
SALEM, NH 03079
Phone 603-898-9178

Additional Remarks

FOR CD CTC BOSTON APCH AT 603-594-5551.

Instrument Procedures

There are no published instrument procedures at NH63.

Some nearby airports with instrument procedures:

KLWM - Lawrence Municipal Airport (10 nm SE)
KMHT - Manchester Airport (10 nm NW)
KASH - Boire Field Airport (14 nm W)
KPSM - Portsmouth International Airport at Pease (21 nm NE)
KBVY - Beverly Regional Airport (22 nm SE)
 
Loc | Ops | Rwys | IFR | FBO | Links
Com | Nav | Svcs | Stats | Notes
Area around NH63 (Weston Street Heliport)
 
Road maps at: MapQuest Bing Google
 
Aerial photo
No photo
 
Sectional chart

 
Airport distance calculator
Flying to Weston Street Heliport? Find the distance to fly.

From to NH63

Sunrise and sunset
Times for 26-Jan-2020
 Local
(UTC-5)
 Zulu
(UTC)
Morning civil twilight06:3611:36
Sunrise07:0712:07
Sunset16:4821:48
Evening civil twilight17:1922:19

Current date and time
Zulu (UTC)  26-Jan-2020 23:22:01
Local (UTC-5)  26-Jan-2020 18:22:01
 
METAR
KLWM 
10nm SE 
262254Z 25008KT 10SM BKN055 04/M03 A2968 RMK AO2 SLP050 T00441033 $
KMHT 
10nm NW 
262253Z 25008KT 10SM BKN049 05/M04 A2964 RMK AO2 SLP055 T00501039
KASH 
14nm SW 
262256Z 00000KT 10SM BKN048 04/M03 A2967 RMK AO2 SLP054 T00441028
TAF
KMHT 
10nm NW 
261720Z 2618/2718 28010KT P6SM FEW030 FM270200 22003KT P6SM BKN100
NOTAMs
Click for the latest NOTAMs
NOTAMs are issued by the DoD/FAA and will open in a separate window not controlled by AirNav.

 

 
 

Would you like to see your business listed on this page?

 If your business provides an interesting product or service to pilots, flight crews, aircraft, or users of the Weston Street Heliport, you should consider listing it here.  To start the listing process, click on the button below
 
Add a business
 

Other Pages about Weston Street Heliport

Update a link
 
Copyright © AirNav, LLC. All rights reserved. Privacy Policy  Contact